Time;durP1;ratioP1;P1;durP2;ratioP2;P2;SDS_P1;SDS_P2;PMS_P1;PMS_P2;Temp;Humidity;BMP_temperature;BMP_pressure;BME280_temperature;BME280_humidity;BME280_pressure;Samples;Min_cycle;Max_cycle;Signal;HPM_P1;HPM_P2
2022/06/06 00:00:50;;;;;;;;;;;;;;;;;;2050277;29;19915;-77
2022/06/06 00:01:51;;;;;;;;;;;;;;;;;;2050009;29;19914;-77
2022/06/06 00:02:54;;;;;;;;;;;;;;;;;;2041636;29;19919;-77
2022/06/06 00:03:55;;;;;;;;;;;;;;;;;;2041979;29;20257;-77
2022/06/06 00:04:57;;;;;;;;;;;;;;;;;;2050062;29;19929;-77
2022/06/06 00:05:58;;;;;;;;;;;;;;;;;;2049995;29;19954;-77
2022/06/06 00:06:59;;;;;;;;;;;;;;;;;;2050000;29;20398;-77
2022/06/06 00:07:59;;;;;;;;;;;;;;;;;;2049893;29;19965;-77
2022/06/06 00:08:59;;;;;;;;;;;;;;;;;;2050009;29;20268;-77
2022/06/06 00:09:59;;;;;;;;;;;;;;;;;;2049919;29;19914;-77
2022/06/06 00:11:01;;;;;;;;;;;;;;;;;;2049945;29;20299;-77
2022/06/06 00:12:04;;;;;;;;;;;;;;;;;;2049951;29;19918;-77
2022/06/06 00:13:04;;;;;;;;;;;;;;;;;;2050022;29;19918;-77
2022/06/06 00:14:05;;;;;;;;;;;;;;;;;;2049929;29;19922;-77
2022/06/06 00:15:06;;;;;;;;;;;;;;;;;;2049920;29;20284;-77
2022/06/06 00:16:06;;;;;;;;;;;;;;;;;;2049966;29;19953;-77
2022/06/06 00:17:06;;;;;;;;;;;;;;;;;;2049954;29;20430;-77
2022/06/06 00:18:07;;;;;;;;;;;;;;;;;;2050050;29;19914;-77
2022/06/06 00:19:07;;;;;;;;;;;;;;;;;;2049887;29;20009;-77
2022/06/06 00:20:08;;;;;;;;;;;;;;;;;;2049999;29;19914;-77
2022/06/06 00:21:10;;;;;;;;;;;;;;;;;;2050125;28;20350;-77
2022/06/06 00:22:10;;;;;;;;;;;;;;;;;;2049972;29;19941;-77
2022/06/06 00:23:10;;;;;;;;;;;;;;;;;;2049822;28;19986;-77
2022/06/06 00:24:11;;;;;;;;;;;;;;;;;;2049928;29;20013;-77
2022/06/06 00:25:11;;;;;;;;;;;;;;;;;;2049856;29;20009;-77
2022/06/06 00:26:13;;;;;;;;;;;;;;;;;;2049996;29;19930;-78
2022/06/06 00:27:13;;;;;;;;;;;;;;;;;;2049796;29;19922;-77
2022/06/06 00:28:13;;;;;;;;;;;;;;;;;;2057379;28;20363;-77
2022/06/06 00:29:15;;;;;;;;;;;;;;;;;;2057410;28;19944;-77
2022/06/06 00:30:17;;;;;;;;;;;;;;;;;;2049927;29;20405;-78
2022/06/06 00:35:20;;;;;;;;;;;;;;;;;;2049909;29;19922;-77
2022/06/06 00:36:20;;;;;;;;;;;;;;;;;;2049850;28;19954;-77
2022/06/06 00:37:28;;;;;;;;;;;;;;;;;;2049693;29;20362;-77
2022/06/06 00:38:28;;;;;;;;;;;;;;;;;;2049867;29;19998;-77
2022/06/06 00:39:29;;;;;;;;;;;;;;;;;;2049769;29;19922;-77
2022/06/06 00:40:30;;;;;;;;;;;;;;;;;;2049751;29;20348;-78
2022/06/06 00:41:30;;;;;;;;;;;;;;;;;;2049214;29;19925;-78
2022/06/06 00:42:32;;;;;;;;;;;;;;;;;;2049355;29;19950;-77
2022/06/06 00:43:36;;;;;;;;;;;;;;;;;;2041270;29;19914;-77
2022/06/06 00:44:36;;;;;;;;;;;;;;;;;;2041846;29;19926;-77
2022/06/06 00:45:37;;;;;;;;;;;;;;;;;;2049752;29;20463;-77
2022/06/06 00:46:44;;;;;;;;;;;;;;;;;;2041243;29;19915;-77
2022/06/06 00:47:46;;;;;;;;;;;;;;;;;;2042195;29;19914;-78
2022/06/06 00:48:47;;;;;;;;;;;;;;;;;;2049718;29;19926;-78
2022/06/06 00:49:59;;;;;;;;;;;;;;;;;;2049514;28;20402;-78
2022/06/06 00:51:08;;;;;;;;;;;;;;;;;;2049674;29;19937;-78
2022/06/06 00:52:11;;;;;;;;;;;;;;;;;;2049676;29;19915;-77
2022/06/06 00:53:13;;;;;;;;;;;;;;;;;;2049856;29;19914;-77
2022/06/06 00:54:13;;;;;;;;;;;;;;;;;;2049657;29;19980;-77
2022/06/06 00:55:41;;;;;;;;;;;;;;;;;;2049712;29;19981;-78
2022/06/06 00:56:45;;;;;;;;;;;;;;;;;;2034427;29;20261;-78
2022/06/06 00:57:52;;;;;;;;;;;;;;;;;;2041221;29;19923;-78
2022/06/06 00:58:54;;;;;;;;;;;;;;;;;;2042065;29;19919;-78
2022/06/06 00:59:55;;;;;;;;;;;;;;;;;;2049518;29;19914;-78
2022/06/06 01:00:55;;;;;;;;;;;;;;;;;;2049546;29;19919;-78
2022/06/06 01:01:59;;;;;;;;;;;;;;;;;;2049664;29;19914;-78
2022/06/06 01:03:01;;;;;;;;;;;;;;;;;;2049663;28;20009;-78
2022/06/06 01:04:03;;;;;;;;;;;;;;;;;;2041115;29;19919;-77
2022/06/06 01:05:04;;;;;;;;;;;;;;;;;;2041372;29;20055;-77
2022/06/06 01:06:06;;;;;;;;;;;;;;;;;;2049685;29;19914;-77
2022/06/06 01:07:08;;;;;;;;;;;;;;;;;;2049398;29;19918;-78
2022/06/06 01:08:08;;;;;;;;;;;;;;;;;;2041004;29;20002;-78
2022/06/06 01:09:09;;;;;;;;;;;;;;;;;;2041143;29;19915;-77
2022/06/06 01:10:10;;;;;;;;;;;;;;;;;;2041140;29;19914;-77
2022/06/06 01:11:10;;;;;;;;;;;;;;;;;;2041018;29;19982;-78
2022/06/06 01:12:12;;;;;;;;;;;;;;;;;;2049600;29;19964;-78
2022/06/06 01:13:13;;;;;;;;;;;;;;;;;;2049713;29;19914;-78
2022/06/06 01:14:16;;;;;;;;;;;;;;;;;;2049613;29;19914;-77
2022/06/06 01:15:18;;;;;;;;;;;;;;;;;;2041207;29;19915;-78
2022/06/06 01:16:28;;;;;;;;;;;;;;;;;;2033338;29;19915;-77
2022/06/06 01:17:31;;;;;;;;;;;;;;;;;;2042364;29;19914;-77
2022/06/06 01:18:37;;;;;;;;;;;;;;;;;;2049403;29;19922;-77
2022/06/06 01:19:56;;;;;;;;;;;;;;;;;;2049442;29;19925;-77
2022/06/06 01:21:14;;;;;;;;;;;;;;;;;;2057154;28;19914;-77
2022/06/06 01:22:47;;;;;;;;;;;;;;;;;;2054827;28;20431;-77
2022/06/06 01:23:50;;;;;;;;;;;;;;;;;;2032899;29;19915;-77
2022/06/06 01:24:57;;;;;;;;;;;;;;;;;;2044969;29;19915;-77
2022/06/06 01:26:00;;;;;;;;;;;;;;;;;;2049423;29;19925;-77
2022/06/06 01:27:00;;;;;;;;;;;;;;;;;;2049457;29;19919;-77
2022/06/06 01:28:06;;;;;;;;;;;;;;;;;;2056753;28;20072;-77
2022/06/06 01:29:10;;;;;;;;;;;;;;;;;;2056244;28;19914;-77
2022/06/06 01:30:14;;;;;;;;;;;;;;;;;;2049355;29;19915;-77
2022/06/06 01:31:18;;;;;;;;;;;;;;;;;;2040837;29;20152;-77
2022/06/06 01:32:20;;;;;;;;;;;;;;;;;;2049357;28;19918;-77
2022/06/06 01:33:21;;;;;;;;;;;;;;;;;;2048630;29;19919;-77
2022/06/06 01:34:26;;;;;;;;;;;;;;;;;;2041106;29;19964;-77
2022/06/06 01:35:28;;;;;;;;;;;;;;;;;;2049406;29;19914;-77
2022/06/06 01:36:29;;;;;;;;;;;;;;;;;;2049354;28;20394;-77
2022/06/06 01:37:37;;;;;;;;;;;;;;;;;;2049129;29;19918;-77
2022/06/06 01:38:39;;;;;;;;;;;;;;;;;;2049451;28;20167;-77
2022/06/06 01:39:39;;;;;;;;;;;;;;;;;;2049335;29;19919;-77
2022/06/06 01:40:45;;;;;;;;;;;;;;;;;;2048955;28;20012;-77
2022/06/06 01:41:51;;;;;;;;;;;;;;;;;;2049348;29;19925;-77
2022/06/06 01:42:58;;;;;;;;;;;;;;;;;;2049362;29;19918;-77
2022/06/06 01:44:07;;;;;;;;;;;;;;;;;;2049382;29;19977;-77
2022/06/06 01:45:11;;;;;;;;;;;;;;;;;;2049316;29;19914;-77
2022/06/06 01:46:19;;;;;;;;;;;;;;;;;;2040754;29;19918;-77
2022/06/06 01:47:23;;;;;;;;;;;;;;;;;;2041767;29;20367;-77
2022/06/06 01:48:29;;;;;;;;;;;;;;;;;;2040724;29;19922;-77
2022/06/06 01:49:32;;;;;;;;;;;;;;;;;;2044416;28;20426;-77
2022/06/06 01:50:35;;;;;;;;;;;;;;;;;;2049335;29;19914;-77
2022/06/06 01:51:35;;;;;;;;;;;;;;;;;;2049347;29;19981;-77
2022/06/06 01:52:49;;;;;;;;;;;;;;;;;;2049205;29;19918;-77
2022/06/06 01:53:49;;;;;;;;;;;;;;;;;;2049410;28;19914;-77
2022/06/06 01:54:53;;;;;;;;;;;;;;;;;;2056709;28;19915;-77
2022/06/06 01:55:54;;;;;;;;;;;;;;;;;;2048286;29;19914;-77
2022/06/06 01:56:57;;;;;;;;;;;;;;;;;;2040753;29;20371;-77
2022/06/06 01:58:00;;;;;;;;;;;;;;;;;;2049145;28;19989;-77
2022/06/06 01:59:01;;;;;;;;;;;;;;;;;;2049143;29;20014;-77
2022/06/06 02:00:01;;;;;;;;;;;;;;;;;;2049221;29;19978;-77
2022/06/06 02:01:02;;;;;;;;;;;;;;;;;;2048535;29;20050;-77
2022/06/06 02:02:03;;;;;;;;;;;;;;;;;;2048830;29;19926;-77
2022/06/06 02:03:04;;;;;;;;;;;;;;;;;;2049190;29;20330;-77
2022/06/06 02:04:04;;;;;;;;;;;;;;;;;;2049129;29;19977;-77
2022/06/06 02:05:05;;;;;;;;;;;;;;;;;;2048687;29;20024;-77
2022/06/06 02:06:06;;;;;;;;;;;;;;;;;;2048731;29;19942;-77
2022/06/06 02:07:06;;;;;;;;;;;;;;;;;;2049129;29;19927;-77
2022/06/06 02:08:07;;;;;;;;;;;;;;;;;;2049246;29;20116;-77
2022/06/06 02:09:08;;;;;;;;;;;;;;;;;;2049270;29;19925;-77
2022/06/06 02:10:09;;;;;;;;;;;;;;;;;;2049200;29;20303;-77
2022/06/06 02:11:11;;;;;;;;;;;;;;;;;;2049175;29;19915;-77
2022/06/06 02:12:11;;;;;;;;;;;;;;;;;;2049421;28;19914;-77
2022/06/06 02:13:12;;;;;;;;;;;;;;;;;;2049144;29;20344;-77
2022/06/06 02:14:12;;;;;;;;;;;;;;;;;;2049179;29;19914;-78
2022/06/06 02:15:14;;;;;;;;;;;;;;;;;;2049085;29;19945;-77
2022/06/06 02:16:15;;;;;;;;;;;;;;;;;;2049173;29;20339;-77
2022/06/06 02:17:15;;;;;;;;;;;;;;;;;;2040558;29;19919;-78
2022/06/06 02:18:15;;;;;;;;;;;;;;;;;;2040705;29;19918;-77
2022/06/06 02:19:15;;;;;;;;;;;;;;;;;;2048836;29;20063;-78
2022/06/06 02:20:16;;;;;;;;;;;;;;;;;;2049017;29;19988;-78
2022/06/06 02:21:16;;;;;;;;;;;;;;;;;;2049286;29;19925;-77
2022/06/06 02:22:17;;;;;;;;;;;;;;;;;;2049134;29;19925;-77
2022/06/06 02:23:17;;;;;;;;;;;;;;;;;;2048941;29;19914;-78
2022/06/06 02:24:17;;;;;;;;;;;;;;;;;;2049205;29;19918;-77
2022/06/06 02:25:18;;;;;;;;;;;;;;;;;;2049256;29;19926;-78
2022/06/06 02:26:18;;;;;;;;;;;;;;;;;;2056507;28;19920;-78
2022/06/06 02:27:18;;;;;;;;;;;;;;;;;;2056710;28;19969;-77
2022/06/06 02:28:19;;;;;;;;;;;;;;;;;;2048842;29;19981;-78
2022/06/06 02:29:21;;;;;;;;;;;;;;;;;;2048198;29;22473;-78
2022/06/06 02:30:23;;;;;;;;;;;;;;;;;;2049026;29;19922;-78
2022/06/06 02:31:23;;;;;;;;;;;;;;;;;;2048958;29;19914;-77
2022/06/06 02:32:23;;;;;;;;;;;;;;;;;;2048955;29;19961;-77
2022/06/06 02:33:24;;;;;;;;;;;;;;;;;;2048595;29;19914;-77
2022/06/06 02:34:24;;;;;;;;;;;;;;;;;;2048746;29;20004;-77
2022/06/06 02:35:26;;;;;;;;;;;;;;;;;;2048988;29;20343;-77
2022/06/06 02:36:27;;;;;;;;;;;;;;;;;;2048883;29;19914;-78
2022/06/06 02:37:29;;;;;;;;;;;;;;;;;;2049037;29;20001;-77
2022/06/06 02:38:30;;;;;;;;;;;;;;;;;;2048889;29;20331;-77
2022/06/06 02:39:30;;;;;;;;;;;;;;;;;;2048798;29;19919;-77
2022/06/06 02:40:31;;;;;;;;;;;;;;;;;;2048845;29;20104;-77
2022/06/06 02:41:31;;;;;;;;;;;;;;;;;;2048830;29;19990;-77
2022/06/06 02:42:31;;;;;;;;;;;;;;;;;;2048963;29;19984;-77
2022/06/06 02:43:31;;;;;;;;;;;;;;;;;;2056413;28;19914;-78
2022/06/06 02:44:32;;;;;;;;;;;;;;;;;;2056449;28;20390;-77
2022/06/06 02:45:32;;;;;;;;;;;;;;;;;;2048855;28;19915;-78
2022/06/06 02:46:32;;;;;;;;;;;;;;;;;;2048807;29;20181;-77
2022/06/06 02:47:33;;;;;;;;;;;;;;;;;;2056149;28;19965;-77
2022/06/06 02:48:33;;;;;;;;;;;;;;;;;;2048384;29;20368;-78
2022/06/06 02:49:33;;;;;;;;;;;;;;;;;;2040361;29;19927;-77
2022/06/06 02:50:34;;;;;;;;;;;;;;;;;;2048355;29;20169;-78
2022/06/06 02:51:34;;;;;;;;;;;;;;;;;;2049014;29;20335;-77
2022/06/06 02:52:34;;;;;;;;;;;;;;;;;;2049057;28;20261;-78
2022/06/06 02:53:35;;;;;;;;;;;;;;;;;;2050387;29;19933;-78
2022/06/06 02:54:35;;;;;;;;;;;;;;;;;;2050000;29;20318;-77
2022/06/06 02:55:35;;;;;;;;;;;;;;;;;;2041986;29;19990;-77
2022/06/06 02:56:36;;;;;;;;;;;;;;;;;;2042136;29;19986;-78
2022/06/06 02:57:37;;;;;;;;;;;;;;;;;;2050502;29;20345;-78
2022/06/06 02:58:37;;;;;;;;;;;;;;;;;;2050547;29;19995;-78
2022/06/06 02:59:38;;;;;;;;;;;;;;;;;;2050554;29;20432;-77
2022/06/06 03:00:42;;;;;;;;;;;;;;;;;;2050565;29;19914;-79
2022/06/06 03:01:43;;;;;;;;;;;;;;;;;;2057795;28;19926;-77
2022/06/06 03:02:43;;;;;;;;;;;;;;;;;;2058158;28;19961;-77
2022/06/06 03:03:43;;;;;;;;;;;;;;;;;;2050276;28;19923;-77
2022/06/06 03:04:43;;;;;;;;;;;;;;;;;;2058006;28;20031;-77
2022/06/06 03:05:53;;;;;;;;;;;;;;;;;;2057825;28;19914;-77
2022/06/06 03:07:12;;;;;;;;;;;;;;;;;;2050363;29;19980;-77
2022/06/06 03:08:18;;;;;;;;;;;;;;;;;;2050314;29;19914;-77
2022/06/06 03:09:21;;;;;;;;;;;;;;;;;;2050329;29;20352;-77
2022/06/06 03:10:30;;;;;;;;;;;;;;;;;;2050416;29;19987;-77
2022/06/06 03:11:36;;;;;;;;;;;;;;;;;;2050470;29;19915;-77
2022/06/06 03:12:47;;;;;;;;;;;;;;;;;;2050325;29;19929;-77
2022/06/06 03:13:50;;;;;;;;;;;;;;;;;;2050283;29;19946;-77
2022/06/06 03:15:20;;;;;;;;;;;;;;;;;;2050216;29;19942;-77
2022/06/06 03:20:49;;;;;;;;;;;;;;;;;;2050446;29;19914;-77
2022/06/06 03:21:56;;;;;;;;;;;;;;;;;;2050259;29;19923;-76
2022/06/06 03:22:56;;;;;;;;;;;;;;;;;;2050329;29;20280;-76
2022/06/06 03:24:15;;;;;;;;;;;;;;;;;;2050273;29;19914;-77
2022/06/06 03:25:22;;;;;;;;;;;;;;;;;;2050139;29;19915;-77
2022/06/06 03:26:26;;;;;;;;;;;;;;;;;;2050364;29;19929;-77
2022/06/06 03:27:39;;;;;;;;;;;;;;;;;;2050250;29;19989;-77
2022/06/06 03:28:46;;;;;;;;;;;;;;;;;;2049943;29;19926;-76
2022/06/06 03:30:06;;;;;;;;;;;;;;;;;;2057681;28;20056;-77
2022/06/06 03:31:20;;;;;;;;;;;;;;;;;;2054903;28;19949;-76
2022/06/06 03:32:29;;;;;;;;;;;;;;;;;;2050177;29;19928;-76
2022/06/06 03:33:32;;;;;;;;;;;;;;;;;;2050114;29;20347;-77
2022/06/06 03:34:32;;;;;;;;;;;;;;;;;;2050314;29;20013;-77
2022/06/06 03:35:51;;;;;;;;;;;;;;;;;;2050020;29;20280;-76
2022/06/06 03:37:12;;;;;;;;;;;;;;;;;;2050025;29;20176;-76
2022/06/06 03:38:23;;;;;;;;;;;;;;;;;;2050271;29;20360;-76
2022/06/06 03:39:29;;;;;;;;;;;;;;;;;;2050131;29;20340;-76
2022/06/06 03:40:39;;;;;;;;;;;;;;;;;;2050128;29;19914;-76
2022/06/06 03:41:49;;;;;;;;;;;;;;;;;;2050081;29;20299;-77
2022/06/06 03:42:53;;;;;;;;;;;;;;;;;;2050286;29;20014;-76
2022/06/06 03:44:12;;;;;;;;;;;;;;;;;;2050057;29;19940;-76
2022/06/06 03:45:19;;;;;;;;;;;;;;;;;;2050099;29;19914;-76
2022/06/06 03:46:19;;;;;;;;;;;;;;;;;;2050086;29;19922;-77
2022/06/06 03:47:38;;;;;;;;;;;;;;;;;;2049845;29;19918;-76
2022/06/06 03:48:51;;;;;;;;;;;;;;;;;;2050128;29;19914;-76
2022/06/06 03:49:59;;;;;;;;;;;;;;;;;;2050105;29;20287;-76
2022/06/06 03:51:10;;;;;;;;;;;;;;;;;;2050181;29;20338;-77
2022/06/06 03:52:14;;;;;;;;;;;;;;;;;;2050038;29;19981;-77
2022/06/06 03:53:17;;;;;;;;;;;;;;;;;;2050049;29;20290;-77
2022/06/06 03:54:27;;;;;;;;;;;;;;;;;;2050135;29;20005;-77
2022/06/06 03:55:36;;;;;;;;;;;;;;;;;;2049677;29;19922;-77
2022/06/06 03:56:39;;;;;;;;;;;;;;;;;;2049761;29;19930;-77
2022/06/06 03:57:42;;;;;;;;;;;;;;;;;;2049856;29;19915;-77
2022/06/06 03:58:43;;;;;;;;;;;;;;;;;;2050056;29;19914;-77
2022/06/06 03:59:45;;;;;;;;;;;;;;;;;;2049943;29;19915;-77
2022/06/06 04:00:46;;;;;;;;;;;;;;;;;;2050108;28;19914;-77
2022/06/06 04:01:47;;;;;;;;;;;;;;;;;;2050029;29;19915;-77
2022/06/06 04:02:48;;;;;;;;;;;;;;;;;;2049998;29;19915;-77
2022/06/06 04:03:49;;;;;;;;;;;;;;;;;;2049651;28;19914;-77
2022/06/06 04:04:50;;;;;;;;;;;;;;;;;;2049892;29;20281;-77
2022/06/06 04:05:53;;;;;;;;;;;;;;;;;;2050091;29;20028;-77
2022/06/06 04:06:55;;;;;;;;;;;;;;;;;;2049935;28;20455;-76
2022/06/06 04:07:56;;;;;;;;;;;;;;;;;;2049833;29;19966;-77
2022/06/06 04:08:56;;;;;;;;;;;;;;;;;;2049116;29;19915;-77
2022/06/06 04:09:56;;;;;;;;;;;;;;;;;;2049414;29;19915;-77
2022/06/06 04:11:08;;;;;;;;;;;;;;;;;;2050026;29;19921;-77
2022/06/06 04:12:08;;;;;;;;;;;;;;;;;;2052647;28;19925;-77
2022/06/06 04:13:21;;;;;;;;;;;;;;;;;;2049807;29;20395;-77
2022/06/06 04:14:28;;;;;;;;;;;;;;;;;;2049657;29;19914;-77
2022/06/06 04:15:47;;;;;;;;;;;;;;;;;;2057055;28;20298;-76
2022/06/06 04:16:59;;;;;;;;;;;;;;;;;;2055083;28;19914;-79
2022/06/06 04:18:18;;;;;;;;;;;;;;;;;;2049649;29;20438;-79
2022/06/06 04:19:28;;;;;;;;;;;;;;;;;;2049462;29;19919;-77
2022/06/06 04:20:31;;;;;;;;;;;;;;;;;;2041400;29;19922;-79
2022/06/06 04:21:37;;;;;;;;;;;;;;;;;;2041533;29;19925;-78
2022/06/06 04:22:46;;;;;;;;;;;;;;;;;;2049472;29;19914;-79
2022/06/06 04:24:05;;;;;;;;;;;;;;;;;;2057452;28;20398;-82
2022/06/06 04:25:13;;;;;;;;;;;;;;;;;;2055206;28;19918;-82
2022/06/06 04:26:31;;;;;;;;;;;;;;;;;;2041241;29;19914;-81
2022/06/06 04:27:42;;;;;;;;;;;;;;;;;;2043670;29;19914;-82
2022/06/06 04:29:05;;;;;;;;;;;;;;;;;;2041178;29;19972;-81
2022/06/06 04:30:17;;;;;;;;;;;;;;;;;;2044202;29;19918;-80
2022/06/06 04:31:36;;;;;;;;;;;;;;;;;;2041453;29;19915;-76
2022/06/06 04:32:46;;;;;;;;;;;;;;;;;;2041267;29;19919;-79
2022/06/06 04:33:49;;;;;;;;;;;;;;;;;;2042446;29;19918;-85
2022/06/06 04:35:10;;;;;;;;;;;;;;;;;;2049762;29;20152;-82
2022/06/06 04:36:33;;;;;;;;;;;;;;;;;;2042433;28;19926;-80
2022/06/06 04:37:36;;;;;;;;;;;;;;;;;;2041028;29;19915;-84
2022/06/06 04:38:57;;;;;;;;;;;;;;;;;;2041722;29;19969;-87
2022/06/06 04:40:02;;;;;;;;;;;;;;;;;;2048550;28;19978;-80
2022/06/06 04:41:02;;;;;;;;;;;;;;;;;;2048377;29;19958;-80
2022/06/06 04:42:35;;;;;;;;;;;;;;;;;;2041379;29;20359;-85
2022/06/06 04:43:45;;;;;;;;;;;;;;;;;;2048524;29;19925;-82
2022/06/06 04:44:52;;;;;;;;;;;;;;;;;;2049365;29;20344;-80
2022/06/06 04:46:22;;;;;;;;;;;;;;;;;;2049691;29;20331;-82
2022/06/06 04:47:22;;;;;;;;;;;;;;;;;;2040713;28;19915;-84
2022/06/06 04:48:24;;;;;;;;;;;;;;;;;;2049568;29;19962;-79
2022/06/06 04:49:26;;;;;;;;;;;;;;;;;;2049552;29;19918;-80
2022/06/06 04:50:26;;;;;;;;;;;;;;;;;;2049596;29;19926;-77
2022/06/06 04:51:27;;;;;;;;;;;;;;;;;;2049274;29;20009;-81
2022/06/06 04:52:29;;;;;;;;;;;;;;;;;;2049417;29;19914;-83
2022/06/06 04:53:30;;;;;;;;;;;;;;;;;;2049514;29;19915;-86
2022/06/06 04:54:31;;;;;;;;;;;;;;;;;;2049515;29;19922;-84
2022/06/06 04:55:33;;;;;;;;;;;;;;;;;;2049238;29;19914;-91
2022/06/06 04:56:37;;;;;;;;;;;;;;;;;;2048808;29;20355;-90
2022/06/06 04:57:43;;;;;;;;;;;;;;;;;;2048703;29;19914;-85
2022/06/06 04:58:47;;;;;;;;;;;;;;;;;;2040017;29;19924;-79
2022/06/06 04:59:48;;;;;;;;;;;;;;;;;;2040889;29;20021;-90
2022/06/06 05:00:49;;;;;;;;;;;;;;;;;;2048788;29;19918;-84
2022/06/06 05:01:52;;;;;;;;;;;;;;;;;;2048652;29;19954;-89
2022/06/06 05:02:52;;;;;;;;;;;;;;;;;;2048792;29;19922;-83
2022/06/06 05:03:53;;;;;;;;;;;;;;;;;;2048093;29;20339;-80
2022/06/06 05:06:35;;;;;;;;;;;;;;;;;;2046396;29;19926;-81
2022/06/06 05:07:38;;;;;;;;;;;;;;;;;;2056744;28;19933;-82
2022/06/06 05:08:38;;;;;;;;;;;;;;;;;;2056671;28;19914;-83
2022/06/06 05:09:41;;;;;;;;;;;;;;;;;;2056758;28;20302;-83
2022/06/06 05:10:56;;;;;;;;;;;;;;;;;;2056407;28;19914;-82
2022/06/06 05:12:15;;;;;;;;;;;;;;;;;;2049495;29;19922;-82
2022/06/06 05:13:36;;;;;;;;;;;;;;;;;;2049398;29;20013;-84
2022/06/06 05:14:48;;;;;;;;;;;;;;;;;;2056754;28;19922;-89
2022/06/06 05:15:56;;;;;;;;;;;;;;;;;;2054763;28;19926;-87
2022/06/06 05:17:08;;;;;;;;;;;;;;;;;;2049408;29;19930;-86
2022/06/06 05:18:27;;;;;;;;;;;;;;;;;;2049454;29;19914;-86
2022/06/06 05:19:46;;;;;;;;;;;;;;;;;;2056806;28;19971;-85
2022/06/06 05:21:05;;;;;;;;;;;;;;;;;;2054931;28;20004;-85
2022/06/06 05:22:13;;;;;;;;;;;;;;;;;;2049405;29;19918;-93
2022/06/06 05:23:26;;;;;;;;;;;;;;;;;;2041240;29;20348;-88
2022/06/06 05:24:38;;;;;;;;;;;;;;;;;;2045422;28;19965;-83
2022/06/06 05:25:56;;;;;;;;;;;;;;;;;;2048928;29;19914;-89
2022/06/06 05:27:08;;;;;;;;;;;;;;;;;;2046741;29;19928;-90
2022/06/06 05:28:26;;;;;;;;;;;;;;;;;;2042278;29;19966;-87
2022/06/06 05:29:38;;;;;;;;;;;;;;;;;;2049504;29;19926;-84
2022/06/06 05:30:44;;;;;;;;;;;;;;;;;;2040931;29;19922;-85
2022/06/06 05:31:56;;;;;;;;;;;;;;;;;;2040866;29;20340;-85
2022/06/06 05:33:14;;;;;;;;;;;;;;;;;;2042568;29;19950;-85
2022/06/06 05:34:17;;;;;;;;;;;;;;;;;;2040900;29;19923;-85
2022/06/06 05:35:36;;;;;;;;;;;;;;;;;;2041355;29;19915;-86
2022/06/06 05:36:48;;;;;;;;;;;;;;;;;;2049243;29;19925;-86
2022/06/06 05:38:07;;;;;;;;;;;;;;;;;;2049362;29;19961;-85
2022/06/06 05:39:13;;;;;;;;;;;;;;;;;;2056876;28;19973;-84
2022/06/06 05:40:14;;;;;;;;;;;;;;;;;;2048175;29;20019;-85
2022/06/06 05:41:19;;;;;;;;;;;;;;;;;;2040880;29;19970;-86
2022/06/06 05:42:40;;;;;;;;;;;;;;;;;;2048995;29;19977;-86
2022/06/06 05:43:49;;;;;;;;;;;;;;;;;;2040373;29;20379;-85
2022/06/06 05:45:09;;;;;;;;;;;;;;;;;;2042121;29;19990;-85
2022/06/06 05:46:12;;;;;;;;;;;;;;;;;;2056712;28;19946;-86
2022/06/06 05:47:17;;;;;;;;;;;;;;;;;;2056508;28;20027;-87
2022/06/06 05:48:33;;;;;;;;;;;;;;;;;;2049277;29;20359;-86
2022/06/06 05:49:42;;;;;;;;;;;;;;;;;;2040977;29;19919;-86
2022/06/06 05:51:03;;;;;;;;;;;;;;;;;;2032900;29;19915;-86
2022/06/06 05:52:15;;;;;;;;;;;;;;;;;;2038456;29;20425;-85
2022/06/06 05:53:23;;;;;;;;;;;;;;;;;;2040850;29;19921;-86
2022/06/06 05:54:42;;;;;;;;;;;;;;;;;;2042003;29;19922;-85
2022/06/06 05:55:51;;;;;;;;;;;;;;;;;;2056749;28;20288;-86
2022/06/06 05:56:51;;;;;;;;;;;;;;;;;;2055655;28;19990;-86
2022/06/06 05:58:00;;;;;;;;;;;;;;;;;;2056382;28;20362;-87
2022/06/06 05:59:07;;;;;;;;;;;;;;;;;;2055711;28;19933;-87
2022/06/06 06:00:16;;;;;;;;;;;;;;;;;;2056700;28;20378;-87
2022/06/06 06:01:28;;;;;;;;;;;;;;;;;;2055485;28;19929;-86
2022/06/06 06:02:50;;;;;;;;;;;;;;;;;;2041043;29;19958;-86
2022/06/06 06:03:53;;;;;;;;;;;;;;;;;;2043719;29;20334;-84
2022/06/06 06:05:14;;;;;;;;;;;;;;;;;;2048923;29;20021;-84
2022/06/06 06:06:21;;;;;;;;;;;;;;;;;;2049371;29;19925;-83
2022/06/06 06:07:42;;;;;;;;;;;;;;;;;;2049225;29;20013;-84
2022/06/06 06:09:01;;;;;;;;;;;;;;;;;;2052563;28;19918;-83
2022/06/06 06:10:11;;;;;;;;;;;;;;;;;;2055374;28;19918;-84
2022/06/06 06:11:37;;;;;;;;;;;;;;;;;;2051989;28;19919;-84
2022/06/06 06:12:49;;;;;;;;;;;;;;;;;;2054269;28;19954;-83
2022/06/06 06:13:56;;;;;;;;;;;;;;;;;;2047499;29;19918;-84
2022/06/06 06:15:10;;;;;;;;;;;;;;;;;;2049562;28;19934;-85
2022/06/06 06:16:11;;;;;;;;;;;;;;;;;;2043330;29;20029;-84
2022/06/06 06:17:12;;;;;;;;;;;;;;;;;;2043430;29;19977;-85
2022/06/06 06:18:30;;;;;;;;;;;;;;;;;;2051891;28;19919;-85
2022/06/06 06:19:34;;;;;;;;;;;;;;;;;;2044094;29;19919;-85
2022/06/06 06:20:40;;;;;;;;;;;;;;;;;;2045267;28;20408;-85
2022/06/06 06:21:49;;;;;;;;;;;;;;;;;;2052060;28;19918;-85
2022/06/06 06:22:51;;;;;;;;;;;;;;;;;;2053186;28;19923;-85
2022/06/06 06:23:58;;;;;;;;;;;;;;;;;;2053731;28;20346;-85
2022/06/06 06:25:00;;;;;;;;;;;;;;;;;;2048493;29;19915;-85
2022/06/06 06:26:03;;;;;;;;;;;;;;;;;;2046835;28;19931;-85
2022/06/06 06:27:04;;;;;;;;;;;;;;;;;;2055189;28;20253;-85
2022/06/06 06:28:06;;;;;;;;;;;;;;;;;;2047940;29;20064;-85
2022/06/06 06:29:07;;;;;;;;;;;;;;;;;;2041668;29;20291;-85
2022/06/06 06:30:09;;;;;;;;;;;;;;;;;;2042166;29;19919;-84
2022/06/06 06:31:25;;;;;;;;;;;;;;;;;;2050610;28;20283;-84
2022/06/06 06:32:36;;;;;;;;;;;;;;;;;;2058911;28;20275;-83
2022/06/06 06:33:39;;;;;;;;;;;;;;;;;;2056774;28;20403;-83
2022/06/06 06:34:58;;;;;;;;;;;;;;;;;;2049171;29;20361;-84
2022/06/06 06:36:28;;;;;;;;;;;;;;;;;;2051036;28;20005;-84
2022/06/06 06:37:34;;;;;;;;;;;;;;;;;;2025219;29;19920;-85
2022/06/06 06:38:37;;;;;;;;;;;;;;;;;;2024651;29;19915;-83
2022/06/06 06:39:37;;;;;;;;;;;;;;;;;;2056295;28;19918;-84
2022/06/06 06:40:37;;;;;;;;;;;;;;;;;;2057428;28;20637;-82
2022/06/06 06:41:43;;;;;;;;;;;;;;;;;;2058700;28;19921;-82
2022/06/06 06:42:57;;;;;;;;;;;;;;;;;;2050136;29;19914;-84
2022/06/06 06:44:11;;;;;;;;;;;;;;;;;;2044190;29;20352;-84
2022/06/06 06:45:19;;;;;;;;;;;;;;;;;;2052097;28;20323;-82
2022/06/06 06:46:20;;;;;;;;;;;;;;;;;;2058632;28;19914;-83
2022/06/06 06:47:28;;;;;;;;;;;;;;;;;;2048753;28;19918;-83
2022/06/06 06:48:36;;;;;;;;;;;;;;;;;;2053769;28;19958;-82
2022/06/06 06:49:58;;;;;;;;;;;;;;;;;;2058495;28;19918;-82
2022/06/06 06:51:09;;;;;;;;;;;;;;;;;;2058846;28;19924;-82
2022/06/06 06:52:25;;;;;;;;;;;;;;;;;;2058615;28;19914;-82
2022/06/06 06:53:31;;;;;;;;;;;;;;;;;;2057611;28;19926;-82
2022/06/06 06:54:37;;;;;;;;;;;;;;;;;;2054176;28;19930;-82
2022/06/06 06:55:40;;;;;;;;;;;;;;;;;;2054044;28;20302;-82
2022/06/06 06:56:59;;;;;;;;;;;;;;;;;;2054086;28;19925;-84
2022/06/06 06:57:59;;;;;;;;;;;;;;;;;;2057222;28;19918;-83
2022/06/06 06:59:07;;;;;;;;;;;;;;;;;;2058039;28;20008;-83
2022/06/06 07:00:08;;;;;;;;;;;;;;;;;;2054688;28;19949;-84
2022/06/06 07:01:12;;;;;;;;;;;;;;;;;;2050597;29;19915;-84
2022/06/06 07:09:26;;;;;;;;;;;;;;;;;;2055393;28;19919;-80
2022/06/06 07:10:35;;;;;;;;;;;;;;;;;;2050081;29;19929;-79
2022/06/06 07:11:47;;;;;;;;;;;;;;;;;;2050698;28;20476;-79
2022/06/06 07:12:59;;;;;;;;;;;;;;;;;;2057842;28;19914;-79
2022/06/06 07:14:00;;;;;;;;;;;;;;;;;;2049448;29;19969;-79
2022/06/06 07:15:11;;;;;;;;;;;;;;;;;;2049559;28;19985;-78
2022/06/06 07:16:19;;;;;;;;;;;;;;;;;;2057924;28;19915;-80
2022/06/06 07:17:21;;;;;;;;;;;;;;;;;;2057646;28;20354;-79
2022/06/06 07:18:24;;;;;;;;;;;;;;;;;;2057675;28;20060;-79
2022/06/06 07:19:38;;;;;;;;;;;;;;;;;;2057755;28;19922;-79
2022/06/06 07:20:40;;;;;;;;;;;;;;;;;;2057692;28;20175;-80
2022/06/06 07:21:41;;;;;;;;;;;;;;;;;;2057866;28;19925;-80
2022/06/06 07:22:59;;;;;;;;;;;;;;;;;;2049362;29;20310;-80
2022/06/06 07:24:02;;;;;;;;;;;;;;;;;;2051709;28;19910;-81
2022/06/06 07:25:02;;;;;;;;;;;;;;;;;;2057772;28;19914;-81
2022/06/06 07:26:06;;;;;;;;;;;;;;;;;;2056364;28;20020;-81
2022/06/06 07:27:08;;;;;;;;;;;;;;;;;;2056258;28;20008;-82
2022/06/06 07:28:12;;;;;;;;;;;;;;;;;;2056327;28;19918;-82
2022/06/06 07:29:14;;;;;;;;;;;;;;;;;;2058306;28;20267;-81
2022/06/06 07:30:15;;;;;;;;;;;;;;;;;;2058266;28;19914;-81
2022/06/06 07:31:34;;;;;;;;;;;;;;;;;;2049918;29;20457;-80
2022/06/06 07:33:13;;;;;;;;;;;;;;;;;;2052638;28;19957;-82
2022/06/06 07:34:30;;;;;;;;;;;;;;;;;;2023842;29;20023;-83
2022/06/06 07:35:35;;;;;;;;;;;;;;;;;;2016747;29;19923;-84
2022/06/06 07:36:53;;;;;;;;;;;;;;;;;;2023739;29;20300;-84
2022/06/06 07:38:06;;;;;;;;;;;;;;;;;;2023391;29;19991;-83
2022/06/06 07:39:17;;;;;;;;;;;;;;;;;;2024347;29;20414;-84
2022/06/06 07:40:24;;;;;;;;;;;;;;;;;;2050855;28;19919;-84
2022/06/06 07:41:33;;;;;;;;;;;;;;;;;;2053678;28;19937;-84
2022/06/06 07:42:51;;;;;;;;;;;;;;;;;;2054900;28;20376;-83
2022/06/06 07:43:59;;;;;;;;;;;;;;;;;;2054202;28;20013;-83
2022/06/06 07:45:05;;;;;;;;;;;;;;;;;;2057525;28;19941;-83
2022/06/06 07:46:05;;;;;;;;;;;;;;;;;;2056450;28;19957;-82
2022/06/06 07:47:35;;;;;;;;;;;;;;;;;;2057007;28;20378;-83
2022/06/06 07:48:46;;;;;;;;;;;;;;;;;;2041358;28;19926;-82
2022/06/06 07:50:01;;;;;;;;;;;;;;;;;;2049805;29;19928;-81